Gobernador Gregores, Argentina
Current Conditions -  °F | °C
As of 8:00 PM on Wednesday 22 Oct 2014 (Local Time) from SAWG Reporting Station
Clear Clear  
Wind Chill: 52°   Ceiling: Unl
Heat Index: 52°   Visibility: 6mi
Dew Point: 27°   Wind: 18mph
Humidity: 38%   Direction: 250°WSW
Pressure: 29.74"   Gusts: NA
Location:  48.75°S, 70.24°W
Report Text: SAWG 222300Z 25016KT CAVOK 11/M03 Q1007
Loading
Personal Weather Stations






























Interactive Weather Map
Tropical Storm Tracking
New forecast layout! Learn more

10-Day Weather Forecast

Advertisements
Track Severe Weather on mobile